Terminal Aerodrome Forecast
Issued by NWS

Home | Current Version | Previous Version | Text Only | Print | Product List | Glossary Off
Versions: 1 2 3 4 5 6 7 8 9 10 11 12 13 14 15 16

000
FTUS43 KBIS 120900 AAB
TAFDIK
TAF AMD
KDIK 120959Z 1210/1306 09005KT P6SM VCTS BKN070CB OVC090
      TEMPO 1210/1213 VRB10KT 5SM -SHRA BKN050 OVC070
     FM121600 27005KT P6SM BKN070 BKN090
     FM122000 30011KT P6SM SCT090
     FM130100 33007KT P6SM FEW100=

USA.gov is the U.S. government's official web portal to all federal, state and local government web resources and services.